Etusivu
METAR-TAF:

METAR-TAF

Lentoasemat :

Strasbourg, Ranska

Leveyspiiri: 48-33N, Pituuspiiri: 007-38E, korkeus merenpinnasta: 153 m

Tämänhetkinen sää

Tämä raportti tehtiin 11 minuuttia sitten, kello 10.30 UTC
Tuuli 3 kn pohjoisesta, vaihdellen lännen/luoteen ja idän välillä
Lämpötila 21°C
Kosteus 64%
Ilmanpaine 1027 hPa
Näkyvyys 10 km tai enemmän
Muutamia pilviä 3000 ft:n korkeudessa

METAR: LFST 301030Z AUTO 01003KT 290V100 9999 FEW030 21/14 Q1027 NOSIG

Aika: 12:41 (10:41 UTC)

Sääennuste

Tämä raportti tehtiin 5 tuntia ja 41 minuuttia sitten, kello 05.00 UTC
Ennuste voimassa 30. päivästä klo 06 UTC - 01. päivään klo 06 UTC
Tuuli 4 kn pohjoisesta
Näkyvyys 10 km tai enemmän
Muutamia pilviä 4500 ft:n korkeudessa
Hajonneita pilviä 6500 ft:n korkeudessa
Todennäköisyys 30% :
Ajoittain
01. päivästä klo 02 UTC - 01. päivään klo 06 UTC
Näkyvyys: 4000 m
utua

TAF: LFST 300500Z 3006/0106 35004KT 9999 FEW045 BKN065 PROB30 TEMPO 0102/0106 4000 BR

Säähavainnot ja -ennusteet yli 4000 lentoasemalta (METAR- ja TAF-raportit).

Käytössä olevat sääasemat on merkitty karttaan keltaisilla ja punaisilla pisteillä.

Aseta hiiri pisteen päälle nähdäksesi sääaseman nimen.

Klikkaa sitten nähdäksesi säähavainnot ja -ennusteet.

Kartan vaihtaminen: klikkaa mustalla rastilla varustettuja vihreitä pisteitä, niin voit zoomata sisään; viivalla varustettua vihreää pistettä, niin voit zoomata ulos tai vihreitä nuolia, niin pääset viereisille kartoille.


METAR-TAF: